Dewitt Spain (M01)
Memphis, TN
Field Elevation: 224
Lat: 35°12.04N  Long: 90°03.24W
CTAF/Unicom Freq: 122.7000
   
     For Weather-by-Phone, call 901-354-9296
Weather Advisories
12/18/2014 18:08 Z
Altimeter 30.23" Hg
Wind 140° @ 3 KT
Gusts --
Visibility 10 SM
Ceiling OVC031
Temperature 6° C (43° F)
Dewpoint 6° C (43° F)
Relative Humidity 100%
Density Altitude --
Condensation Altitude --
Wind Chill 5° C (41° F)
  Wind and Runways
Indicated Runway = 17
History
 
 
More Info
All DigiWx sites map
NOAA Forecast
 
Airport IQ 5010
(2M8) Charles W. Baker Airport
(3M3) Collegedale Muni
 
about DigiWx
 
FAA Disclaimer: The data displayed is for advisory purposes only and is not to be used for flight planning or operations. For official data, please call 901-354-9296 to hear the current automated AWOS voice message.
  METAR M01 181808Z AUTO 14003KT 10SM OVC031 06/06 A3023